Time;durP1;ratioP1;P1;durP2;ratioP2;P2;SDS_P1;SDS_P2;PMS_P1;PMS_P2;Temp;Humidity;BMP_temperature;BMP_pressure;BME280_temperature;BME280_humidity;BME280_pressure;Samples;Min_cycle;Max_cycle;Signal;HPM_P1;HPM_P2
2021/03/13 00:01:10;;;;;;;2.55;1.25;;;8.50;90.10;;;;;;5048149;28;20430;-71
2021/03/13 00:03:36;;;;;;;1.98;1.17;;;8.50;90.10;;;;;;5057391;28;20029;-71
2021/03/13 00:06:02;;;;;;;2.42;1.30;;;8.50;90.20;;;;;;5053633;28;20082;-71
2021/03/13 00:08:28;;;;;;;1.48;0.98;;;8.40;90.20;;;;;;5058405;28;20073;-71
2021/03/13 00:10:54;;;;;;;2.42;1.17;;;8.50;90.20;;;;;;5051311;28;20431;-71
2021/03/13 00:13:19;;;;;;;3.17;1.10;;;8.50;90.20;;;;;;5051272;28;20070;-70
2021/03/13 00:15:45;;;;;;;3.05;1.10;;;8.50;90.10;;;;;;5051596;28;20040;-71
2021/03/13 00:18:12;;;;;;;2.67;1.10;;;8.60;90.10;;;;;;5049166;28;20029;-71
2021/03/13 00:20:39;;;;;;;3.88;1.42;;;8.50;90.10;;;;;;5039669;28;20087;-70
2021/03/13 00:23:05;;;;;;;1.95;1.00;;;8.60;90.20;;;;;;5051404;28;20377;-72
2021/03/13 00:25:32;;;;;;;1.02;0.93;;;8.60;90.20;;;;;;5049743;28;20037;-72
2021/03/13 00:27:58;;;;;;;1.80;0.88;;;8.60;90.30;;;;;;5056467;28;20029;-72
2021/03/13 00:30:29;;;;;;;1.95;1.00;;;8.60;90.30;;;;;;5050299;28;20079;-70
2021/03/13 00:32:57;;;;;;;1.58;0.98;;;8.60;90.40;;;;;;5051591;28;20857;-72
2021/03/13 00:35:25;;;;;;;4.25;0.95;;;8.60;90.30;;;;;;5058902;28;20120;-72
2021/03/13 00:37:51;;;;;;;1.33;1.02;;;8.60;90.30;;;;;;5032893;28;20073;-71
2021/03/13 00:40:20;;;;;;;1.65;1.00;;;8.60;90.30;;;;;;5051516;28;20453;-72
2021/03/13 00:42:45;;;;;;;4.05;0.98;;;8.50;90.40;;;;;;5047690;28;20036;-72
2021/03/13 00:45:13;;;;;;;3.90;1.00;;;8.50;90.60;;;;;;5060979;28;20020;-71
2021/03/13 00:47:40;;;;;;;2.22;1.08;;;8.40;90.40;;;;;;5051549;28;20036;-73
2021/03/13 00:50:06;;;;;;;2.92;1.30;;;8.50;90.50;;;;;;5066370;28;20024;-73
2021/03/13 00:52:32;;;;;;;2.42;1.00;;;8.50;90.60;;;;;;5045073;28;20060;-73
2021/03/13 00:54:58;;;;;;;2.67;1.20;;;8.40;90.60;;;;;;5032324;28;20029;-73
2021/03/13 00:57:24;;;;;;;2.20;1.08;;;8.50;90.60;;;;;;5046815;28;20052;-74
2021/03/13 00:59:50;;;;;;;1.67;0.90;;;8.40;90.70;;;;;;5051861;28;20477;-73
2021/03/13 01:02:15;;;;;;;2.08;1.10;;;8.30;90.70;;;;;;5044495;28;20063;-72
2021/03/13 01:04:41;;;;;;;1.60;1.00;;;8.40;90.80;;;;;;5067797;28;20510;-72
2021/03/13 01:07:06;;;;;;;2.65;1.25;;;8.40;90.80;;;;;;5050044;28;20029;-72
2021/03/13 01:09:32;;;;;;;2.53;1.33;;;8.40;90.80;;;;;;5032720;28;20456;-72
2021/03/13 01:11:57;;;;;;;2.42;1.30;;;8.30;90.80;;;;;;5057528;28;20465;-72
2021/03/13 01:14:23;;;;;;;2.63;1.25;;;8.30;90.90;;;;;;5049882;28;20043;-72
2021/03/13 01:16:49;;;;;;;3.40;0.85;;;8.30;90.90;;;;;;5058955;28;20476;-72
2021/03/13 01:19:15;;;;;;;2.85;1.20;;;8.30;91.00;;;;;;5071463;28;20480;-71
2021/03/13 01:21:41;;;;;;;1.95;1.15;;;8.20;91.00;;;;;;5051932;28;20057;-71
2021/03/13 01:24:07;;;;;;;1.88;1.25;;;8.20;91.10;;;;;;5050688;28;20044;-71
2021/03/13 01:26:32;;;;;;;2.45;1.30;;;8.30;91.10;;;;;;5041813;28;20116;-71
2021/03/13 01:28:58;;;;;;;2.78;1.27;;;8.20;91.20;;;;;;5035113;28;20025;-72
2021/03/13 01:31:23;;;;;;;3.17;1.63;;;8.20;91.20;;;;;;5042982;28;20098;-72
2021/03/13 01:33:49;;;;;;;2.35;1.65;;;8.20;91.30;;;;;;5049769;28;20513;-71
2021/03/13 01:36:14;;;;;;;1.92;1.20;;;8.20;91.30;;;;;;5052894;28;20090;-71
2021/03/13 01:38:40;;;;;;;2.83;1.40;;;8.20;91.40;;;;;;5062325;28;20119;-71
2021/03/13 01:41:05;;;;;;;4.07;1.40;;;8.20;91.40;;;;;;5052070;28;20499;-71
2021/03/13 01:43:31;;;;;;;3.28;1.80;;;8.20;91.40;;;;;;5048692;28;20021;-71
2021/03/13 01:45:57;;;;;;;2.75;1.38;;;8.10;91.40;;;;;;5054864;28;20105;-71
2021/03/13 01:48:30;;;;;;;2.75;1.40;;;8.10;91.40;;;;;;5072320;28;20033;-71
2021/03/13 01:50:56;;;;;;;2.22;1.35;;;8.10;91.60;;;;;;5057108;28;20037;-72
2021/03/13 01:53:21;;;;;;;2.10;1.33;;;8.10;91.50;;;;;;5070476;28;20021;-72
2021/03/13 01:55:47;;;;;;;2.70;1.40;;;8.10;91.50;;;;;;5055575;28;20061;-72
2021/03/13 01:58:13;;;;;;;2.20;1.40;;;8.10;91.50;;;;;;5073463;28;20049;-73
2021/03/13 02:00:38;;;;;;;3.35;1.52;;;8.10;91.50;;;;;;5070772;28;20029;-73
2021/03/13 02:03:04;;;;;;;2.72;1.50;;;8.10;91.50;;;;;;5055578;28;20048;-72
2021/03/13 02:05:41;;;;;;;2.80;1.40;;;8.00;91.50;;;;;;5056854;28;20028;-72
2021/03/13 02:08:21;;;;;;;2.95;1.30;;;8.10;91.60;;;;;;5046212;28;20032;-73
2021/03/13 02:11:01;;;;;;;2.92;1.60;;;8.00;91.60;;;;;;5048780;28;20036;-74
2021/03/13 02:13:45;;;;;;;3.60;1.70;;;8.00;91.70;;;;;;5056944;28;20125;-73
2021/03/13 02:16:28;;;;;;;3.03;1.58;;;8.00;91.80;;;;;;5056964;28;20032;-72
2021/03/13 02:19:24;;;;;;;3.05;1.65;;;8.00;91.70;;;;;;5056690;28;20045;-73
2021/03/13 02:22:00;;;;;;;8.15;2.45;;;8.00;91.70;;;;;;5057233;28;20083;-73
2021/03/13 02:24:28;;;;;;;2.85;1.60;;;8.00;91.70;;;;;;5038369;28;20109;-73
2021/03/13 02:27:19;;;;;;;2.78;1.58;;;8.00;91.70;;;;;;5047530;28;20029;-72
2021/03/13 02:30:06;;;;;;;2.38;1.40;;;7.90;91.70;;;;;;5057346;28;20029;-73
2021/03/13 02:32:42;;;;;;;3.63;2.00;;;7.90;91.70;;;;;;5057644;28;20033;-73
2021/03/13 02:35:24;;;;;;;2.67;1.52;;;7.90;91.70;;;;;;5052721;28;20045;-72
2021/03/13 02:37:57;;;;;;;5.20;1.55;;;7.80;91.70;;;;;;5055603;28;20077;-72
2021/03/13 02:40:27;;;;;;;4.22;1.73;;;7.90;91.80;;;;;;5078512;28;20044;-72
2021/03/13 02:42:55;;;;;;;2.85;1.60;;;7.90;91.90;;;;;;5056966;28;20386;-73
2021/03/13 02:45:26;;;;;;;4.18;1.85;;;7.80;91.80;;;;;;5057237;28;20028;-73
2021/03/13 02:47:53;;;;;;;3.92;2.03;;;7.90;91.90;;;;;;5056801;28;20029;-72
2021/03/13 02:50:19;;;;;;;4.63;2.20;;;7.80;91.90;;;;;;5056223;28;20050;-72
2021/03/13 02:52:54;;;;;;;4.03;2.28;;;7.80;91.90;;;;;;5043071;28;20025;-71
2021/03/13 02:55:20;;;;;;;;;;;7.90;92.00;;;;;;5056023;28;20029;-73
2021/03/13 02:57:49;;;;;;;5.28;2.40;;;7.80;91.80;;;;;;5050175;28;19978;-71
2021/03/13 03:00:17;;;;;;;6.22;2.10;;;7.80;91.80;;;;;;5053895;28;20250;-70
2021/03/13 03:02:47;;;;;;;6.50;1.98;;;7.90;92.00;;;;;;5052634;28;20045;-70
2021/03/13 03:05:16;;;;;;;3.53;2.03;;;7.90;92.10;;;;;;5052588;28;20059;-70
2021/03/13 03:07:42;;;;;;;4.65;2.20;;;7.90;92.20;;;;;;5037150;28;20029;-71
2021/03/13 03:10:09;;;;;;;3.72;2.47;;;7.90;92.10;;;;;;5039421;28;20027;-71
2021/03/13 03:12:35;;;;;;;5.15;1.90;;;7.90;92.10;;;;;;5052324;28;20060;-71
2021/03/13 03:15:01;;;;;;;3.83;1.98;;;8.00;92.10;;;;;;5053492;28;20456;-72
2021/03/13 03:17:28;;;;;;;3.85;2.10;;;8.00;92.10;;;;;;5059781;28;20036;-72
2021/03/13 03:19:56;;;;;;;4.88;2.25;;;8.00;92.10;;;;;;5064391;28;20037;-72
2021/03/13 03:22:22;;;;;;;4.50;1.90;;;8.00;92.10;;;;;;5064610;28;20028;-71
2021/03/13 03:24:48;;;;;;;7.00;1.90;;;8.00;92.00;;;;;;5066887;28;20047;-72
2021/03/13 03:27:14;;;;;;;2.67;1.52;;;8.00;92.00;;;;;;5056316;28;20366;-72
2021/03/13 03:29:39;;;;;;;4.03;1.75;;;8.10;91.90;;;;;;5050340;28;20033;-72
2021/03/13 03:32:05;;;;;;;4.50;2.15;;;8.00;91.80;;;;;;5051948;28;20416;-71
2021/03/13 03:34:31;;;;;;;4.00;1.83;;;8.10;91.70;;;;;;5052901;28;20474;-72
2021/03/13 03:36:56;;;;;;;3.22;1.60;;;8.00;91.60;;;;;;5061196;28;20058;-71
2021/03/13 03:39:22;;;;;;;4.20;1.77;;;8.00;91.60;;;;;;5058054;28;20044;-71
2021/03/13 03:41:52;;;;;;;3.85;1.58;;;8.00;91.50;;;;;;5059528;28;20024;-71
2021/03/13 03:44:26;;;;;;;2.95;1.55;;;8.00;91.50;;;;;;5054338;28;20112;-71
2021/03/13 03:46:59;;;;;;;3.38;1.80;;;8.00;91.50;;;;;;5061580;28;20032;-72
2021/03/13 03:49:26;;;;;;;2.17;1.40;;;7.90;91.50;;;;;;5055006;28;20041;-72
2021/03/13 03:51:54;;;;;;;6.07;1.85;;;7.90;91.50;;;;;;5054088;28;20082;-71
2021/03/13 03:54:20;;;;;;;2.83;1.40;;;7.90;91.50;;;;;;5053257;28;20044;-72
2021/03/13 03:56:47;;;;;;;3.00;1.58;;;7.90;91.50;;;;;;5053113;28;20044;-72
2021/03/13 03:59:19;;;;;;;3.47;1.40;;;7.90;91.40;;;;;;5054198;28;20393;-71
2021/03/13 04:01:48;;;;;;;2.80;1.48;;;7.90;91.40;;;;;;5052995;28;20412;-71
2021/03/13 04:04:15;;;;;;;2.83;1.50;;;7.90;91.30;;;;;;5052700;28;20033;-71
2021/03/13 04:06:41;;;;;;;4.20;1.65;;;7.90;91.30;;;;;;5053304;28;20028;-71
2021/03/13 04:09:08;;;;;;;3.10;1.50;;;7.80;91.50;;;;;;5053105;28;20039;-72
2021/03/13 04:11:36;;;;;;;2.13;1.40;;;7.80;91.20;;;;;;5044601;28;20111;-71
2021/03/13 04:14:03;;;;;;;2.72;1.42;;;7.80;91.20;;;;;;5053555;28;20061;-71
2021/03/13 04:16:30;;;;;;;2.75;1.60;;;7.80;91.20;;;;;;5053833;28;20029;-71
2021/03/13 04:18:57;;;;;;;2.53;1.50;;;7.80;91.20;;;;;;5053390;28;20025;-72
2021/03/13 04:21:23;;;;;;;3.50;1.45;;;7.80;91.20;;;;;;5054147;28;20028;-72
2021/03/13 04:23:49;;;;;;;2.33;1.20;;;7.70;91.10;;;;;;5053733;28;20100;-72
2021/03/13 04:26:16;;;;;;;4.85;1.38;;;7.70;91.10;;;;;;5051034;28;20036;-72
2021/03/13 04:28:43;;;;;;;4.82;1.88;;;7.70;91.10;;;;;;5051980;28;20393;-72
2021/03/13 04:31:10;;;;;;;4.50;1.40;;;7.60;91.10;;;;;;5051042;28;20029;-72
2021/03/13 04:33:38;;;;;;;4.68;2.10;;;7.60;91.10;;;;;;5053389;28;20032;-72
2021/03/13 04:36:04;;;;;;;2.50;1.60;;;7.60;91.20;;;;;;5041507;28;20080;-72
2021/03/13 04:38:30;;;;;;;3.08;1.63;;;7.60;91.20;;;;;;5050163;28;20367;-72
2021/03/13 04:40:57;;;;;;;3.65;1.67;;;7.60;91.20;;;;;;5050529;28;20033;-70
2021/03/13 04:43:25;;;;;;;7.00;1.60;;;7.60;91.20;;;;;;5051534;28;20091;-69
2021/03/13 04:45:55;;;;;;;2.85;1.63;;;7.60;91.30;;;;;;5049801;28;20061;-70
2021/03/13 04:48:21;;;;;;;5.53;2.40;;;7.50;91.40;;;;;;5062966;28;20029;-69
2021/03/13 04:50:46;;;;;;;4.68;1.50;;;7.60;91.40;;;;;;5046172;28;20024;-70
2021/03/13 04:53:12;;;;;;;6.57;2.33;;;7.60;91.40;;;;;;5048374;28;20501;-70
2021/03/13 04:55:37;;;;;;;3.13;1.52;;;7.60;91.40;;;;;;5051336;28;20108;-70
2021/03/13 04:58:03;;;;;;;2.03;1.40;;;7.60;91.40;;;;;;5037157;28;20505;-70
2021/03/13 05:00:29;;;;;;;5.55;1.85;;;7.70;91.40;;;;;;5045696;28;20043;-70
2021/03/13 05:02:54;;;;;;;4.18;1.67;;;7.70;91.40;;;;;;5053011;28;20021;-70
2021/03/13 05:05:20;;;;;;;4.43;1.70;;;7.70;91.40;;;;;;5051190;28;20033;-69
2021/03/13 05:07:45;;;;;;;6.30;1.80;;;7.70;91.40;;;;;;5053192;28;20033;-69
2021/03/13 05:10:11;;;;;;;4.43;1.60;;;7.60;91.40;;;;;;5049603;28;20052;-69
2021/03/13 05:12:37;;;;;;;2.95;2.50;;;7.70;91.40;;;;;;5050162;28;20401;-69
2021/03/13 05:15:05;;;;;;;2.17;1.40;;;7.70;91.40;;;;;;5056103;28;20048;-70
2021/03/13 05:17:31;;;;;;;5.00;1.50;;;7.70;91.40;;;;;;5064023;28;20025;-70
2021/03/13 05:19:56;;;;;;;3.65;1.45;;;7.60;91.40;;;;;;5056146;28;20021;-70
2021/03/13 05:22:22;;;;;;;4.72;1.60;;;7.60;91.40;;;;;;5050270;28;20029;-70
2021/03/13 05:24:47;;;;;;;4.30;1.65;;;7.60;91.40;;;;;;5043389;28;20055;-69
2021/03/13 05:27:13;;;;;;;2.03;1.50;;;7.60;91.40;;;;;;5061647;28;20035;-69
2021/03/13 05:29:38;;;;;;;3.17;1.60;;;7.50;91.40;;;;;;5046472;28;20029;-70
2021/03/13 05:32:04;;;;;;;2.67;1.50;;;7.60;91.50;;;;;;5050040;28;20021;-70
2021/03/13 05:34:29;;;;;;;4.05;1.40;;;7.60;91.50;;;;;;5042087;28;20477;-69
2021/03/13 05:36:55;;;;;;;4.97;1.83;;;7.60;91.50;;;;;;5040775;28;20021;-68
2021/03/13 05:39:20;;;;;;;4.28;1.67;;;7.60;91.50;;;;;;5050686;28;20078;-71
2021/03/13 05:41:47;;;;;;;2.28;1.75;;;7.60;91.50;;;;;;5053068;28;20063;-72
2021/03/13 05:44:13;;;;;;;3.05;1.58;;;7.60;91.50;;;;;;5070867;28;20373;-70
2021/03/13 05:46:41;;;;;;;3.22;1.90;;;7.60;91.60;;;;;;5054680;28;20035;-73
2021/03/13 05:49:08;;;;;;;2.45;1.67;;;7.60;91.60;;;;;;5056891;28;20030;-74
2021/03/13 05:51:36;;;;;;;3.33;1.80;;;7.70;91.70;;;;;;5050573;28;20033;-74
2021/03/13 05:54:03;;;;;;;3.15;1.98;;;7.70;91.70;;;;;;5038871;28;20501;-74
2021/03/13 05:56:29;;;;;;;3.30;1.90;;;7.70;91.70;;;;;;5045979;28;20091;-74
2021/03/13 05:58:55;;;;;;;4.00;1.90;;;7.80;91.70;;;;;;5050195;28;20099;-74
2021/03/13 06:01:21;;;;;;;3.25;1.98;;;7.90;91.80;;;;;;5051338;28;20039;-74
2021/03/13 06:03:47;;;;;;;4.72;1.90;;;7.90;91.70;;;;;;5060910;28;20112;-74
2021/03/13 06:06:14;;;;;;;3.30;2.13;;;7.90;91.70;;;;;;5050237;28;20125;-74
2021/03/13 06:08:40;;;;;;;4.40;2.05;;;7.90;91.70;;;;;;5042494;28;20029;-74
2021/03/13 06:11:05;;;;;;;2.70;1.83;;;8.00;91.70;;;;;;5055544;28;20033;-74
2021/03/13 06:13:33;;;;;;;5.80;2.72;;;8.00;91.60;;;;;;5049841;28;20053;-74
2021/03/13 06:15:59;;;;;;;4.00;2.38;;;8.10;91.60;;;;;;5049835;28;20029;-73
2021/03/13 06:18:44;;;;;;;4.30;3.08;;;8.00;91.50;;;;;;5050751;28;20591;-73
2021/03/13 06:21:22;;;;;;;5.13;2.00;;;8.10;91.50;;;;;;5049217;28;20419;-71
2021/03/13 06:23:49;;;;;;;4.00;2.20;;;8.10;91.50;;;;;;5049829;28;20501;-70
2021/03/13 06:26:15;;;;;;;3.08;2.10;;;8.20;91.50;;;;;;5049277;28;20401;-71
2021/03/13 06:28:41;;;;;;;3.97;2.20;;;8.20;91.40;;;;;;5054477;28;20017;-71
2021/03/13 06:31:07;;;;;;;3.13;1.92;;;8.20;91.40;;;;;;5051747;28;20033;-71
2021/03/13 06:33:34;;;;;;;5.00;2.22;;;8.20;91.40;;;;;;5053575;28;20025;-71
2021/03/13 06:36:01;;;;;;;2.90;1.80;;;8.30;91.40;;;;;;5053163;28;20478;-71
2021/03/13 06:38:29;;;;;;;5.10;2.05;;;8.30;91.40;;;;;;5047395;28;20371;-70
2021/03/13 06:41:10;;;;;;;4.88;1.92;;;8.30;91.30;;;;;;5053775;28;20565;-70
2021/03/13 06:43:35;;;;;;;4.30;2.03;;;8.40;91.30;;;;;;5043475;28;20076;-70
2021/03/13 06:46:18;;;;;;;2.85;1.65;;;8.40;91.30;;;;;;5038036;28;20025;-71
2021/03/13 06:48:47;;;;;;;3.33;2.25;;;8.50;91.20;;;;;;5034212;28;20022;-72
2021/03/13 06:51:24;;;;;;;4.78;2.33;;;8.50;91.20;;;;;;5043272;28;20478;-72
2021/03/13 06:54:01;;;;;;;4.28;2.03;;;8.60;91.20;;;;;;5071141;28;20036;-73
2021/03/13 06:56:28;;;;;;;4.03;2.05;;;8.60;91.10;;;;;;5057623;28;20033;-73
2021/03/13 06:58:54;;;;;;;2.65;1.63;;;8.70;91.10;;;;;;5073589;28;20041;-74
2021/03/13 07:01:27;;;;;;;2.53;1.80;;;8.70;91.00;;;;;;5066327;28;20112;-74
2021/03/13 07:03:52;;;;;;;3.28;1.73;;;8.80;90.90;;;;;;5054027;28;20102;-74
2021/03/13 07:06:19;;;;;;;2.80;1.73;;;8.80;90.80;;;;;;5052818;28;20025;-73
2021/03/13 07:08:46;;;;;;;4.55;1.95;;;8.90;90.70;;;;;;5055287;28;20083;-74
2021/03/13 07:11:11;;;;;;;2.63;1.60;;;8.90;90.60;;;;;;5052073;28;20378;-74
2021/03/13 07:13:38;;;;;;;2.85;1.67;;;8.90;90.60;;;;;;5054558;28;20029;-74
2021/03/13 07:16:23;;;;;;;3.70;1.65;;;9.00;90.40;;;;;;5044395;28;20025;-74
2021/03/13 07:18:50;;;;;;;3.15;1.75;;;9.00;90.40;;;;;;5053612;28;20029;-74
2021/03/13 07:21:17;;;;;;;4.65;2.10;;;9.00;90.40;;;;;;5055036;28;20509;-73
2021/03/13 07:23:44;;;;;;;3.30;1.77;;;9.10;90.30;;;;;;5073036;28;20485;-70
2021/03/13 07:26:11;;;;;;;2.50;1.48;;;9.10;90.30;;;;;;5059659;28;20378;-69
2021/03/13 07:28:41;;;;;;;2.67;1.70;;;9.10;90.30;;;;;;5051463;28;20033;-69
2021/03/13 07:31:09;;;;;;;2.80;1.80;;;9.20;90.40;;;;;;5049466;28;20423;-70
2021/03/13 07:33:38;;;;;;;3.85;1.77;;;9.20;90.50;;;;;;5051802;28;20033;-70
2021/03/13 07:36:25;;;;;;;2.75;1.63;;;9.30;90.60;;;;;;5048712;28;20516;-70
2021/03/13 07:38:53;;;;;;;6.78;2.05;;;9.30;90.60;;;;;;5050958;28;20057;-70
2021/03/13 07:41:19;;;;;;;3.13;2.00;;;9.30;90.60;;;;;;5048219;28;20060;-71
2021/03/13 07:43:45;;;;;;;2.85;1.92;;;9.50;90.70;;;;;;5046080;28;20056;-72
2021/03/13 07:46:12;;;;;;;3.92;2.13;;;9.50;90.70;;;;;;5051140;28;20029;-71
2021/03/13 07:48:39;;;;;;;3.20;1.88;;;9.50;90.80;;;;;;5050218;28;20025;-72
2021/03/13 07:51:06;;;;;;;4.50;2.10;;;9.60;90.80;;;;;;5061279;28;20036;-72
2021/03/13 07:53:42;;;;;;;3.45;1.80;;;9.60;90.80;;;;;;5063008;28;20512;-72
2021/03/13 07:56:14;;;;;;;3.15;1.77;;;9.60;90.80;;;;;;5066083;28;20037;-72
2021/03/13 07:58:40;;;;;;;3.97;1.92;;;9.60;90.80;;;;;;5078879;28;20045;-72
2021/03/13 08:01:07;;;;;;;3.63;2.08;;;9.60;91.00;;;;;;5050360;28;20033;-71
2021/03/13 08:03:33;;;;;;;4.00;2.22;;;9.60;91.10;;;;;;5055662;28;20354;-71
2021/03/13 08:06:19;;;;;;;5.13;2.20;;;9.50;91.40;;;;;;5051173;28;20056;-75
2021/03/13 08:08:50;;;;;;;3.88;1.85;;;9.60;91.40;;;;;;5063053;28;20036;-70
2021/03/13 08:11:19;;;;;;;4.45;2.33;;;9.60;91.50;;;;;;5053534;28;20617;-71
2021/03/13 08:13:51;;;;;;;6.88;2.45;;;9.60;91.70;;;;;;5062926;28;20037;-72
2021/03/13 08:16:37;;;;;;;4.50;2.13;;;9.60;91.80;;;;;;5049291;28;20033;-72
2021/03/13 08:19:03;;;;;;;6.05;2.30;;;9.70;91.90;;;;;;5059609;28;20029;-72
2021/03/13 08:21:39;;;;;;;4.60;2.55;;;9.70;91.80;;;;;;5051167;28;20040;-72
2021/03/13 08:24:04;;;;;;;3.45;2.35;;;9.70;91.90;;;;;;5049379;28;20608;-72
2021/03/13 08:26:33;;;;;;;3.65;2.15;;;9.60;91.90;;;;;;5055578;28;20056;-72
2021/03/13 08:28:59;;;;;;;4.45;2.63;;;9.60;92.00;;;;;;5051779;28;20055;-71
2021/03/13 08:31:25;;;;;;;3.95;2.40;;;9.70;92.10;;;;;;5044407;28;20112;-73
2021/03/13 08:33:52;;;;;;;3.75;2.38;;;9.70;92.10;;;;;;5061562;28;20119;-72
2021/03/13 08:36:19;;;;;;;2.95;2.05;;;9.60;92.30;;;;;;5062527;28;20029;-72
2021/03/13 08:38:55;;;;;;;8.80;2.53;;;9.60;92.30;;;;;;5042133;28;20037;-73
2021/03/13 08:41:42;;;;;;;3.88;2.10;;;9.60;92.40;;;;;;5036747;28;20059;-72
2021/03/13 08:44:13;;;;;;;3.30;2.30;;;9.60;92.50;;;;;;5032058;28;20027;-72
2021/03/13 08:46:54;;;;;;;4.90;2.45;;;9.60;92.50;;;;;;5048700;28;20105;-73
2021/03/13 08:49:26;;;;;;;4.72;2.38;;;9.60;92.70;;;;;;5050380;28;20021;-73
2021/03/13 08:52:07;;;;;;;6.18;2.67;;;9.50;92.70;;;;;;5046746;28;20045;-73
2021/03/13 08:54:38;;;;;;;4.72;2.40;;;9.60;92.90;;;;;;5051524;28;20069;-73
2021/03/13 08:57:15;;;;;;;4.88;2.38;;;9.50;92.90;;;;;;5059543;28;20028;-73
2021/03/13 08:59:57;;;;;;;5.00;2.90;;;9.50;93.20;;;;;;5057042;28;20034;-74
2021/03/13 09:02:25;;;;;;;3.97;2.80;;;9.50;93.10;;;;;;5050414;28;20041;-72
2021/03/13 09:04:55;;;;;;;4.05;2.58;;;9.50;93.20;;;;;;5049867;28;20029;-72
2021/03/13 09:07:24;;;;;;;3.40;2.38;;;9.50;93.30;;;;;;5049161;28;20502;-68
2021/03/13 09:09:51;;;;;;;4.38;2.47;;;9.50;93.50;;;;;;5051965;28;20071;-69
2021/03/13 09:12:19;;;;;;;4.22;2.38;;;9.50;93.50;;;;;;5050331;28;20029;-69
2021/03/13 09:14:49;;;;;;;4.38;2.40;;;9.50;93.60;;;;;;5051298;28;20036;-72
2021/03/13 09:17:17;;;;;;;3.97;2.47;;;9.50;93.60;;;;;;5050251;28;20025;-72
2021/03/13 09:19:44;;;;;;;3.75;2.30;;;9.50;93.70;;;;;;5050508;28;20501;-73
2021/03/13 09:22:11;;;;;;;4.47;2.47;;;9.50;93.90;;;;;;5060612;28;20056;-70
2021/03/13 09:24:37;;;;;;;5.30;3.00;;;9.40;93.90;;;;;;5062396;28;20025;-72
2021/03/13 09:27:04;;;;;;;3.95;2.92;;;9.40;94.20;;;;;;5047966;28;20025;-68
2021/03/13 09:29:31;;;;;;;7.28;2.72;;;9.40;94.30;;;;;;5052761;28;20075;-69
2021/03/13 09:31:59;;;;;;;5.05;2.88;;;9.30;94.50;;;;;;5047146;28;20167;-68
2021/03/13 09:34:25;;;;;;;5.57;3.10;;;9.30;94.60;;;;;;5051196;28;20045;-72
2021/03/13 09:36:51;;;;;;;5.40;3.17;;;9.30;94.70;;;;;;5042140;28;20497;-73
2021/03/13 09:39:23;;;;;;;3.97;2.60;;;9.30;94.70;;;;;;5050341;28;20033;-69
2021/03/13 09:42:08;;;;;;;3.42;2.55;;;9.30;94.80;;;;;;5057125;28;20456;-71
2021/03/13 09:44:38;;;;;;;;;;;9.30;94.70;;;;;;5049917;28;20039;-68
2021/03/13 09:47:19;;;;;;;4.75;3.05;;;9.30;94.40;;;;;;5059596;28;20440;-70
2021/03/13 09:49:52;;;;;;;4.63;3.08;;;9.20;94.70;;;;;;5057694;28;20040;-70
2021/03/13 09:52:39;;;;;;;6.35;2.83;;;9.30;94.90;;;;;;5061577;28;20024;-69
2021/03/13 09:55:06;;;;;;;3.70;2.38;;;9.30;95.10;;;;;;5054661;28;20113;-70
2021/03/13 09:57:33;;;;;;;3.83;2.33;;;9.30;95.00;;;;;;5048614;28;20048;-71
2021/03/13 10:00:00;;;;;;;5.28;3.22;;;9.30;95.10;;;;;;5038397;28;20029;-71
2021/03/13 10:02:26;;;;;;;5.13;2.50;;;9.40;95.20;;;;;;5053075;28;20029;-70
2021/03/13 10:04:53;;;;;;;3.72;2.22;;;9.40;95.20;;;;;;5053253;28;20531;-71
2021/03/13 10:07:19;;;;;;;4.45;2.30;;;9.40;95.20;;;;;;5056912;28;20024;-71
2021/03/13 10:09:59;;;;;;;3.67;2.38;;;9.50;95.20;;;;;;5053500;28;20100;-70
2021/03/13 10:12:31;;;;;;;3.78;2.47;;;9.50;95.30;;;;;;5048796;28;20120;-70
2021/03/13 10:15:21;;;;;;;3.60;2.00;;;9.50;95.20;;;;;;5038634;28;20041;-70
2021/03/13 10:18:00;;;;;;;3.42;1.90;;;9.50;95.20;;;;;;5051518;28;20037;-71
2021/03/13 10:20:29;;;;;;;2.85;1.80;;;9.50;95.30;;;;;;5038692;28;20029;-71
2021/03/13 10:22:55;;;;;;;4.03;2.33;;;9.50;95.30;;;;;;5068137;28;20028;-70
2021/03/13 10:25:21;;;;;;;2.10;1.60;;;9.60;95.40;;;;;;5055896;28;20104;-71
2021/03/13 10:27:46;;;;;;;3.63;1.98;;;9.70;95.40;;;;;;5048779;28;20121;-72
2021/03/13 10:30:13;;;;;;;2.85;1.65;;;9.70;95.30;;;;;;5046329;28;20100;-71
2021/03/13 10:32:40;;;;;;;5.13;1.70;;;9.80;95.40;;;;;;5061688;28;20035;-71
2021/03/13 10:35:17;;;;;;;2.55;1.60;;;9.80;95.30;;;;;;5054372;28;20045;-72
2021/03/13 10:37:47;;;;;;;4.45;1.95;;;9.90;95.30;;;;;;5052422;28;20104;-71
2021/03/13 10:40:42;;;;;;;2.63;1.67;;;9.90;95.30;;;;;;5054667;28;20037;-72
2021/03/13 10:43:25;;;;;;;3.10;1.77;;;9.90;95.20;;;;;;5046648;28;20104;-72
2021/03/13 10:45:56;;;;;;;2.60;1.73;;;9.90;95.30;;;;;;5052581;28;20052;-73
2021/03/13 10:48:23;;;;;;;1.80;1.17;;;10.00;95.30;;;;;;5040423;28;20116;-71
2021/03/13 10:50:49;;;;;;;2.53;1.52;;;10.00;95.20;;;;;;5052389;28;20037;-71
2021/03/13 10:53:25;;;;;;;2.30;1.40;;;10.00;95.10;;;;;;5051789;28;20033;-71
2021/03/13 10:55:56;;;;;;;2.20;1.60;;;10.10;95.10;;;;;;5053067;28;20041;-70
2021/03/13 10:58:26;;;;;;;1.85;1.20;;;10.10;95.10;;;;;;5038521;28;20075;-71
2021/03/13 11:00:52;;;;;;;2.83;1.60;;;10.10;95.20;;;;;;5052424;28;20059;-72
2021/03/13 11:03:18;;;;;;;4.07;1.73;;;10.10;95.20;;;;;;5053552;28;20094;-71
2021/03/13 11:05:46;;;;;;;2.67;1.60;;;10.10;95.30;;;;;;5047992;28;20478;-71
2021/03/13 11:08:12;;;;;;;2.30;1.40;;;10.10;95.30;;;;;;5052799;28;20059;-72
2021/03/13 11:10:38;;;;;;;4.75;2.90;;;10.20;95.20;;;;;;5053176;28;20029;-72
2021/03/13 11:13:04;;;;;;;4.90;2.35;;;10.20;95.10;;;;;;5051310;28;20060;-72
2021/03/13 11:15:30;;;;;;;2.70;1.50;;;10.30;95.10;;;;;;5053943;28;20047;-72
2021/03/13 11:17:55;;;;;;;3.00;1.85;;;10.40;95.10;;;;;;5037891;28;20031;-72
2021/03/13 11:20:21;;;;;;;3.15;1.70;;;10.40;95.10;;;;;;5050772;28;20059;-73
2021/03/13 11:22:46;;;;;;;4.75;2.58;;;10.50;95.10;;;;;;5051468;28;20083;-75
2021/03/13 11:25:12;;;;;;;3.88;2.05;;;10.50;95.00;;;;;;5053660;28;20036;-73
2021/03/13 11:27:38;;;;;;;1.85;1.38;;;10.60;95.00;;;;;;5054480;28;20028;-74
2021/03/13 11:30:06;;;;;;;1.83;1.15;;;10.70;94.90;;;;;;5050382;28;20574;-73
2021/03/13 11:32:32;;;;;;;1.67;1.20;;;10.70;94.70;;;;;;5051788;28;20045;-72
2021/03/13 11:34:57;;;;;;;1.55;0.98;;;10.70;94.50;;;;;;5069905;28;20040;-72
2021/03/13 11:37:23;;;;;;;1.85;1.10;;;10.80;94.40;;;;;;5063617;28;20507;-70
2021/03/13 11:39:49;;;;;;;3.03;1.27;;;10.90;94.30;;;;;;5056504;28;20033;-74
2021/03/13 11:42:14;;;;;;;2.13;1.40;;;10.90;94.30;;;;;;5050846;28;20059;-72
2021/03/13 11:44:40;;;;;;;1.77;1.13;;;11.00;94.30;;;;;;5053034;28;20036;-72
2021/03/13 11:47:05;;;;;;;2.92;1.33;;;11.10;94.30;;;;;;5049571;28;20488;-72
2021/03/13 11:49:31;;;;;;;3.85;1.23;;;11.20;94.10;;;;;;5053246;28;20025;-71
2021/03/13 11:51:56;;;;;;;2.53;1.58;;;11.20;93.90;;;;;;5050168;28;20477;-76
2021/03/13 11:54:22;;;;;;;2.70;1.38;;;11.40;94.00;;;;;;5051489;28;20035;-74
2021/03/13 11:56:47;;;;;;;3.47;1.60;;;11.50;93.80;;;;;;5057419;28;20032;-73
2021/03/13 11:59:13;;;;;;;3.90;2.00;;;11.60;93.60;;;;;;5071826;28;20087;-73
2021/03/13 12:01:39;;;;;;;3.58;1.30;;;11.70;93.50;;;;;;5064103;28;20488;-73
2021/03/13 12:04:04;;;;;;;2.78;1.30;;;11.70;93.20;;;;;;5072676;28;20065;-73
2021/03/13 12:06:30;;;;;;;2.08;1.10;;;11.80;93.10;;;;;;5047736;28;20048;-73
2021/03/13 12:08:55;;;;;;;3.30;1.23;;;11.90;93.00;;;;;;5032806;28;20659;-73
2021/03/13 12:11:21;;;;;;;1.90;1.30;;;12.00;92.90;;;;;;5035974;28;20033;-75
2021/03/13 12:13:46;;;;;;;2.45;1.63;;;12.10;92.70;;;;;;5031067;28;20631;-74
2021/03/13 12:16:12;;;;;;;3.65;1.20;;;12.20;92.50;;;;;;5050052;28;20037;-73
2021/03/13 12:18:38;;;;;;;1.40;1.10;;;12.30;92.30;;;;;;5052405;28;20029;-75
2021/03/13 12:21:03;;;;;;;3.20;1.30;;;12.40;91.70;;;;;;5034286;28;20087;-75
2021/03/13 12:23:29;;;;;;;4.10;1.90;;;12.40;91.60;;;;;;5045565;28;20025;-74
2021/03/13 12:25:55;;;;;;;2.65;1.40;;;12.50;91.10;;;;;;5032341;28;20025;-73
2021/03/13 12:28:20;;;;;;;5.70;1.60;;;12.60;91.10;;;;;;5043739;28;20358;-73
2021/03/13 12:30:46;;;;;;;3.58;1.35;;;12.60;91.10;;;;;;5052121;28;20074;-73
2021/03/13 12:33:11;;;;;;;2.15;1.17;;;12.70;90.80;;;;;;5039875;28;20040;-74
2021/03/13 12:35:38;;;;;;;4.07;1.33;;;12.70;90.50;;;;;;5032235;28;20037;-73
2021/03/13 12:38:04;;;;;;;2.40;1.40;;;12.80;90.30;;;;;;5040996;28;20028;-73
2021/03/13 12:40:29;;;;;;;2.58;1.50;;;12.90;90.20;;;;;;5050694;28;20033;-74
2021/03/13 12:42:54;;;;;;;4.38;1.88;;;12.90;89.70;;;;;;5050891;28;20487;-73
2021/03/13 12:45:20;;;;;;;1.67;1.20;;;13.00;89.30;;;;;;5052144;28;20032;-74
2021/03/13 12:47:48;;;;;;;1.33;1.15;;;13.00;88.30;;;;;;5050118;28;20021;-74
2021/03/13 12:50:13;;;;;;;2.75;1.33;;;13.00;88.10;;;;;;5051755;28;20397;-74
2021/03/13 12:52:39;;;;;;;2.60;1.40;;;13.10;87.30;;;;;;5046576;28;20083;-72
2021/03/13 12:55:05;;;;;;;1.92;0.98;;;13.10;86.20;;;;;;5045713;28;20111;-74
2021/03/13 12:57:31;;;;;;;1.35;0.95;;;13.20;86.10;;;;;;5056558;28;20134;-74
2021/03/13 12:59:56;;;;;;;2.03;1.25;;;13.20;86.20;;;;;;5047305;28;20572;-74
2021/03/13 13:02:22;;;;;;;5.35;1.20;;;13.30;85.10;;;;;;5043378;28;20021;-73